Stations météo

réclame
Mon MeteoGroup
Gent/Industry Zo, Pays-Bas (6431): Température de l'air & dewpoint: 20.05.2018 23:00:00 - 26.05.2018 23:00:00 (CEST)Gent/Industry Zo, Pays-Bas (6431): Vitesse du vent & gusts: 20.05.2018 23:00:00 - 26.05.2018 23:00:00 (CEST)Gent/Industry Zo, Pays-Bas (6431): Direction du vent: 20.05.2018 23:00:00 - 26.05.2018 23:00:00 (CEST)Gent/Industry Zo, Pays-Bas (6431): reduced air pressure: 20.05.2018 23:00:00 - 26.05.2018 23:00:00 (CEST)Gent/Industry Zo, Pays-Bas (6431): Ensoleillement: 20.05.2018 23:00:00 - 26.05.2018 23:00:00 (CEST)Gent/Industry Zo, Pays-Bas (6431): Quantités de précipitations: 20.05.2018 23:00:00 - 26.05.2018 23:00:00 (CEST)
Date & Time tt [°C] td [°C] ff [km/h] ff [knt] fx [km/h] fx [knt] dd ppp [hPa] sd [min] rr [mm]
26.05.2018 23:00:00 24,7 16,7 9 5 19 10 ENE 1018,3 0 0,0
26.05.2018 22:00:00 25,8 17,0 7 4 20 11 NE 1018,2 - 0,0
26.05.2018 21:00:00 27,8 17,4 9 5 21 11 E 1018,1 - 0,0
26.05.2018 20:00:00 28,7 15,8 7 4 23 12 E 1017,9 - 0,0
26.05.2018 19:00:00 29,4 16,7 10 6 28 15 ESE 1018,1 - 0,0
26.05.2018 18:00:00 29,4 16,8 10 5 25 14 E 1018,3 - 0,0
26.05.2018 17:00:00 29,2 17,5 13 7 24 13 ESE 1018,7 - 0,0
26.05.2018 16:00:00 29,2 17,5 11 6 26 14 ESE 1018,9 - 0,0
26.05.2018 15:00:00 28,7 16,0 12 6 29 16 E 1019,4 - 0,0
26.05.2018 14:00:00 28,2 17,0 11 6 28 15 ESE 1019,4 - 0,0
26.05.2018 13:00:00 27,4 17,5 12 6 24 13 E 1019,3 - 0,0
26.05.2018 12:00:00 25,4 18,2 10 5 19 10 NE 1019,4 - 0,0
26.05.2018 11:00:00 22,9 18,5 7 4 16 9 ENE 1019,6 - 0,0
26.05.2018 10:00:00 - - - - - - - - - -
26.05.2018 09:00:00 17,2 17,1 4 2 8 4 N 1019,0 - 0,0
26.05.2018 08:00:00 14,8 14,7 4 2 12 7 NNE 1019,0 - 0,0
26.05.2018 07:00:00 14,1 14,1 5 3 14 7 NNW 1018,7 - 0,0
26.05.2018 06:00:00 14,1 14,0 9 5 18 10 WSW 1018,9 - 0,0
26.05.2018 05:00:00 14,3 14,2 4 2 9 5 NNW 1018,4 0 0,0
26.05.2018 04:00:00 14,4 14,3 4 2 6 4 N 1018,6 0 0,0
26.05.2018 03:00:00 14,6 14,4 6 3 9 5 NNW 1018,8 0 0,0
26.05.2018 02:00:00 14,6 14,4 4 2 11 6 N 1019,0 0 0,0
26.05.2018 01:00:00 14,6 14,4 5 3 13 7 N 1019,2 0 0,0
26.05.2018 00:00:00 14,8 14,5 7 4 11 6 NNW 1019,0 0 0,0
25.05.2018 23:00:00 15,3 14,8 6 4 12 7 NNW 1019,2 0 0,0
25.05.2018 22:00:00 16,1 15,4 7 4 15 8 N 1019,1 - 0,0
25.05.2018 21:00:00 17,9 16,2 8 4 16 9 N 1018,6 - 0,0
25.05.2018 20:00:00 19,4 17,0 11 6 18 10 N 1018,7 - 0,0
25.05.2018 19:00:00 20,0 17,2 11 6 21 12 NNW 1018,5 - 0,0
25.05.2018 18:00:00 20,8 17,6 13 7 21 11 NNW 1018,7 - 0,0
25.05.2018 17:00:00 21,7 18,7 11 6 23 12 NNW 1018,8 - 0,0
25.05.2018 16:00:00 22,0 18,9 14 8 20 11 NW 1018,7 - 0,0
25.05.2018 15:00:00 21,8 16,8 6 4 15 8 NNW 1018,4 - 0,0
25.05.2018 14:00:00 21,3 16,9 7 4 10 5 NW 1018,4 - 0,0
25.05.2018 13:00:00 20,6 16,4 4 2 8 4 W 1018,5 - 0,0
25.05.2018 12:00:00 19,8 16,4 5 3 11 6 WSW 1018,5 - 0,0
25.05.2018 11:00:00 18,2 16,5 4 2 11 6 W 1018,2 - 0,0
25.05.2018 10:00:00 16,4 15,9 9 5 13 7 WSW 1018,3 - 0,0
25.05.2018 09:00:00 15,6 15,3 6 4 12 6 SW 1018,1 - 0,0
25.05.2018 08:00:00 15,0 14,8 4 2 13 7 SSW 1017,7 - 0,2
25.05.2018 07:00:00 14,5 14,3 4 2 8 5 SSE 1017,4 - 0,0
25.05.2018 06:00:00 14,4 14,2 4 2 10 5 SW 1017,0 - 0,0
25.05.2018 05:00:00 14,8 14,6 5 3 8 4 ESE 1016,8 0 0,0
25.05.2018 04:00:00 15,5 15,3 4 2 10 5 S 1016,5 0 0,1
25.05.2018 03:00:00 15,8 15,6 5 3 10 5 E 1016,7 0 0,0
25.05.2018 02:00:00 16,0 15,7 4 2 10 5 E 1017,0 0 0,0
25.05.2018 01:00:00 16,3 15,9 6 4 10 6 NE 1016,7 0 4,6
25.05.2018 00:00:00 16,5 16,1 4 2 8 5 NE 1017,5 0 0,1
24.05.2018 23:00:00 16,4 15,9 5 3 11 6 NE 1017,2 0 0,0
24.05.2018 22:00:00 16,5 15,8 4 2 6 4 NNW 1016,5 - 0,0
24.05.2018 21:00:00 16,9 16,2 5 3 14 7 NNW 1016,5 - 1,2
24.05.2018 20:00:00 17,2 15,7 11 6 37 20 SW 1016,9 - 2,9
24.05.2018 19:00:00 21,9 17,1 8 4 16 9 ENE 1016,2 - 0,0
24.05.2018 18:00:00 22,9 16,5 7 4 22 12 NE 1016,2 - 0,0
24.05.2018 17:00:00 23,2 16,3 11 6 21 11 NE 1016,3 - 0,0
24.05.2018 16:00:00 23,5 15,2 9 5 23 12 ENE 1017,0 - 0,0
24.05.2018 15:00:00 23,7 15,3 10 5 25 14 ENE 1017,4 - 0,0
24.05.2018 14:00:00 23,7 15,3 11 6 26 14 ENE 1017,8 - 0,0
24.05.2018 13:00:00 22,5 14,9 13 7 22 12 NE 1018,3 - 0,0
24.05.2018 12:00:00 21,5 15,0 10 5 22 12 NE 1018,7 - 0,0
24.05.2018 11:00:00 20,8 13,9 8 5 19 11 NE 1019,2 - 0,0
24.05.2018 10:00:00 20,1 12,9 9 5 21 12 E 1019,4 - 0,0
24.05.2018 09:00:00 18,4 13,0 9 5 18 10 ENE 1019,4 - 0,0
24.05.2018 08:00:00 15,8 12,1 7 4 16 9 NNE 1019,3 - 0,0
24.05.2018 07:00:00 15,2 12,0 7 4 13 7 NE 1019,4 - 0,0
24.05.2018 06:00:00 15,1 12,6 6 4 11 6 NE 1019,5 - 0,0
24.05.2018 05:00:00 15,9 14,4 6 3 9 5 N 1019,7 0 0,0
24.05.2018 04:00:00 16,3 15,3 5 3 7 4 N 1020,0 0 0,0
24.05.2018 03:00:00 16,9 15,5 4 2 9 5 N 1020,3 0 0,0
24.05.2018 02:00:00 18,1 15,6 4 2 16 9 SW 1020,5 0 0,0
24.05.2018 01:00:00 18,1 16,4 4 2 9 5 NNW 1020,6 0 0,0
24.05.2018 00:00:00 18,4 16,8 4 2 8 4 N 1020,1 0 0,0
23.05.2018 23:00:00 18,4 17,0 5 3 8 5 NNE 1020,0 0 0,0
23.05.2018 22:00:00 18,8 17,0 5 3 16 9 N 1020,0 - 0,6
23.05.2018 21:00:00 20,5 17,1 4 2 11 6 NNE 1019,6 - -
23.05.2018 20:00:00 22,6 15,3 7 4 20 11 NE 1019,4 - 0,0
23.05.2018 19:00:00 23,0 15,2 11 6 24 13 ENE 1019,2 - 0,0
23.05.2018 18:00:00 22,8 15,7 11 6 27 14 ENE 1019,3 - 0,0
23.05.2018 17:00:00 22,1 16,6 10 5 21 11 NNE 1019,5 - 0,0
23.05.2018 16:00:00 21,9 17,0 10 6 22 12 NE 1019,9 - 0,0
23.05.2018 15:00:00 21,0 17,1 10 5 23 12 NNE 1020,2 - 0,0
23.05.2018 14:00:00 20,0 16,7 8 4 20 11 NNE 1020,2 - 0,0
23.05.2018 13:00:00 18,8 16,6 9 5 17 9 NNE 1020,4 - 0,0
23.05.2018 12:00:00 17,0 16,4 7 4 19 10 NNE 1020,3 - 0,1
23.05.2018 11:00:00 15,8 15,4 7 4 14 7 NNE 1020,3 - 0,9
23.05.2018 10:00:00 15,5 15,1 4 2 10 6 N 1019,9 - 2,3
23.05.2018 09:00:00 15,1 14,6 5 3 11 6 NE 1019,6 - 0,7
23.05.2018 08:00:00 14,8 14,2 4 2 8 4 N 1019,0 - 0,0
23.05.2018 07:00:00 14,3 13,7 4 2 11 6 N 1018,3 - 0,0
23.05.2018 06:00:00 14,2 13,3 5 3 11 6 N 1017,8 - 0,2
23.05.2018 05:00:00 14,7 13,2 6 3 12 6 N 1017,5 0 0,0
23.05.2018 04:00:00 14,7 13,3 5 3 10 6 NNW 1017,1 0 0,0
23.05.2018 03:00:00 15,2 13,5 7 4 10 5 NW 1017,0 0 0,0
23.05.2018 02:00:00 15,4 13,8 7 4 9 5 WNW 1016,9 0 0,0
23.05.2018 01:00:00 15,4 13,9 7 4 11 6 NNW 1016,6 0 0,0
23.05.2018 00:00:00 16,1 14,1 7 4 12 7 WNW 1016,7 0 0,0
22.05.2018 23:00:00 16,9 13,9 5 3 10 6 NNW 1016,3 0 0,0
22.05.2018 22:00:00 17,3 13,9 4 2 8 4 WNW 1015,6 - 0,0
22.05.2018 21:00:00 17,7 13,3 5 3 11 6 N 1015,1 - 0,0
22.05.2018 20:00:00 18,6 13,8 7 4 20 11 E 1015,1 - 0,1
22.05.2018 19:00:00 20,1 14,5 8 4 19 11 NNE 1014,7 - 0,0
22.05.2018 18:00:00 20,4 14,7 10 5 20 11 N 1014,0 - 0,0
22.05.2018 17:00:00 20,8 14,6 12 6 28 15 NNW 1013,5 - 0,0
22.05.2018 16:00:00 22,0 14,5 15 8 30 16 N 1013,3 - 0,0
22.05.2018 15:00:00 22,3 14,4 8 5 18 10 NNW 1013,3 - 0,0
22.05.2018 14:00:00 23,5 15,3 7 4 17 9 N 1013,4 - 0,0
22.05.2018 13:00:00 22,3 15,5 8 4 16 9 N 1013,4 - 0,0
22.05.2018 12:00:00 21,5 15,4 9 5 19 11 N 1013,3 - 0,0
22.05.2018 11:00:00 20,2 15,1 8 5 17 9 NNE 1013,2 - 0,0
22.05.2018 10:00:00 19,0 15,6 7 4 12 7 N 1013,3 - 0,0
22.05.2018 09:00:00 16,6 14,7 5 3 14 7 NNW 1013,1 - 0,0
22.05.2018 08:00:00 14,6 13,6 4 2 14 8 N 1012,7 - 0,0
22.05.2018 07:00:00 13,9 13,1 4 2 9 5 WNW 1012,1 - 0,0
22.05.2018 06:00:00 13,5 12,5 5 3 9 5 NNE 1011,8 - 0,0
22.05.2018 05:00:00 13,8 12,7 5 3 9 5 NE 1011,8 0 0,0
22.05.2018 04:00:00 14,5 13,1 4 2 10 5 ENE 1011,8 0 0,0
22.05.2018 03:00:00 14,4 13,3 4 2 5 3 N 1011,9 0 0,1
22.05.2018 02:00:00 15,5 13,8 4 2 9 5 WNW 1012,2 0 0,0
22.05.2018 01:00:00 15,8 14,0 6 3 10 5 NE 1012,2 0 0,0
22.05.2018 00:00:00 16,2 14,3 5 3 10 5 NNE 1012,4 0 0,0
21.05.2018 23:00:00 16,8 14,3 5 3 19 10 NNW 1012,7 0 0,0
21.05.2018 22:00:00 17,2 14,6 6 3 16 9 NE 1012,0 - 0,6
21.05.2018 21:00:00 18,0 14,7 5 3 32 17 E 1012,4 - 1,5
21.05.2018 20:00:00 23,7 12,9 4 2 12 7 W 1011,7 - 0,0
21.05.2018 19:00:00 24,7 12,7 5 3 16 9 ESE 1012,1 - 0,0
21.05.2018 18:00:00 24,5 12,4 9 5 22 12 ESE 1012,3 - 0,0
21.05.2018 17:00:00 24,7 13,2 10 5 32 17 ESE 1013,0 - 0,0
21.05.2018 16:00:00 24,5 12,1 15 8 27 15 ESE 1013,4 - 0,0
21.05.2018 15:00:00 24,5 11,8 10 5 26 14 ENE 1013,6 - 0,0
21.05.2018 14:00:00 22,0 12,3 11 6 21 12 ENE 1014,2 - 0,0
21.05.2018 13:00:00 19,4 14,5 9 5 15 8 NE 1015,0 - 0,0
21.05.2018 12:00:00 16,5 14,9 5 3 11 6 N 1015,3 - 0,0
21.05.2018 11:00:00 15,3 14,1 4 2 12 7 NNE 1015,9 - 0,3
21.05.2018 10:00:00 14,9 14,1 6 4 18 10 NNE 1016,1 - 0,0
21.05.2018 09:00:00 14,3 13,7 6 3 16 9 NE 1016,5 - 0,4
21.05.2018 08:00:00 13,9 13,3 7 4 13 7 ENE 1016,8 - 0,0
21.05.2018 07:00:00 13,6 13,0 6 3 12 7 NE 1017,0 - 0,0
21.05.2018 06:00:00 13,5 12,9 5 3 9 5 NNE 1017,2 - 0,0
21.05.2018 05:00:00 12,9 12,5 5 3 8 4 NNE 1017,4 0 0,0
21.05.2018 04:00:00 13,2 12,6 5 3 7 4 NNE 1018,0 0 0,0
21.05.2018 03:00:00 13,9 13,0 5 3 9 5 ENE 1018,5 0 0,0
21.05.2018 02:00:00 15,0 13,9 4 2 13 7 E 1019,2 0 0,0
21.05.2018 01:00:00 14,3 13,5 6 3 11 6 NE 1019,2 0 0,0
21.05.2018 00:00:00 15,0 14,0 7 4 12 6 NNW 1019,2 0 0,2
20.05.2018 23:00:00 14,9 13,2 4 2 13 7 NNE 1020,2 0 0,0

tt = Température de l'air
td = dewpoint
ff = Vitesse du vent
fx = gusts
dd = Direction du vent
ppp = reduced air pressure
sd = Ensoleillement
rr = Quantités de précipitations

stations d'obs. à proximité